International Virtual Aviation Organisation

Russian Federation and Kazakhstan MCD

 
URMN 270300Z 09001MPS 0300 R24/0350 FG VV001 00/00 Q1026 R24/////// NOSIG RMK QBB050 MT OBSC OBST OBSC QFE733
QNH:(hPa/inHg/mmHg)1026 / 30.3 / 770
QFE:(hPa/inHg/mmHg)1010 / 29.81 / 757
Temperature0
Dew Point0
Visibility0300
WeatherFog
Cloud CoverVV (100);
Transition Height1000 m./3800 ft.
Transition LevelFL50
SQUAWK